createdAt,value
2022-09-09T00:03:26.943Z,3.06
2022-09-09T00:14:26.110Z,3.06
2022-09-09T00:25:27.745Z,3.06
2022-09-09T00:36:29.191Z,3.05
2022-09-09T00:47:31.652Z,3.05
2022-09-09T00:58:33.798Z,3.05
2022-09-09T01:09:35.330Z,3.04
2022-09-09T01:20:35.764Z,3.04
2022-09-09T01:31:35.775Z,3.04
2022-09-09T01:42:36.100Z,3.03
2022-09-09T01:53:38.333Z,3.03
2022-09-09T02:04:40.330Z,3.03
2022-09-09T02:15:41.865Z,3.02
2022-09-09T02:26:43.380Z,3.02
2022-09-09T02:37:44.331Z,3.02
2022-09-09T02:48:46.156Z,3.02
2022-09-09T02:59:45.127Z,3.01
2022-09-09T03:10:23.146Z,3.00
2022-09-09T03:21:22.436Z,3.00
2022-09-09T03:32:24.919Z,3.00
2022-09-09T03:43:25.420Z,2.99
2022-09-09T03:54:24.322Z,2.99
2022-09-09T04:05:26.631Z,2.99
2022-09-09T04:16:26.885Z,2.99
2022-09-09T04:27:30.109Z,2.99
2022-09-09T04:38:27.289Z,2.99
2022-09-09T04:49:22.933Z,2.99
2022-09-09T05:00:24.130Z,2.99
2022-09-09T05:11:14.489Z,3.00
2022-09-09T05:22:08.664Z,3.02
2022-09-09T05:33:10.390Z,3.03
2022-09-09T05:44:13.139Z,3.04
2022-09-09T05:55:12.034Z,3.05
2022-09-09T06:06:13.366Z,3.08
2022-09-09T06:17:15.702Z,3.10
2022-09-09T06:28:17.823Z,3.10
2022-09-09T06:39:18.496Z,3.12
2022-09-09T06:50:18.278Z,3.14
2022-09-09T07:01:13.893Z,3.18
2022-09-09T07:12:14.302Z,3.19
2022-09-09T07:23:10.110Z,3.19
2022-09-09T07:34:02.783Z,3.19
2022-09-09T07:45:00.327Z,3.20
2022-09-09T07:55:55.621Z,3.20
2022-09-09T08:06:48.992Z,3.19
2022-09-09T08:17:49.117Z,3.22
2022-09-09T08:28:43.077Z,3.25
2022-09-09T08:39:27.837Z,3.28
2022-09-09T08:50:20.156Z,3.28
2022-09-09T09:00:54.383Z,3.30
2022-09-09T09:11:52.429Z,3.31
2022-09-09T09:22:52.450Z,3.29
2022-09-09T09:33:51.756Z,3.29
2022-09-09T09:44:42.725Z,3.30
2022-09-09T09:55:17.203Z,3.31
2022-09-09T10:06:12.355Z,3.31
2022-09-09T10:16:46.424Z,3.32
2022-09-09T10:27:44.744Z,3.32
2022-09-09T10:38:30.035Z,3.31
2022-09-09T10:49:23.063Z,3.30
2022-09-09T11:00:11.183Z,3.32
2022-09-09T11:11:06.880Z,3.32
2022-09-09T11:21:40.503Z,3.36
2022-09-09T11:32:14.270Z,3.34
2022-09-09T11:43:06.472Z,3.33
2022-09-09T11:54:04.636Z,3.33
2022-09-09T12:04:39.107Z,3.32
2022-09-09T12:15:34.371Z,3.32
2022-09-09T12:26:24.746Z,3.33
2022-09-09T12:36:58.089Z,3.33
2022-09-09T12:48:02.608Z,3.31
2022-09-09T12:58:59.315Z,3.32
2022-09-09T13:09:51.144Z,3.34
2022-09-09T13:20:47.243Z,3.33
2022-09-09T13:31:39.740Z,3.36
2022-09-09T13:42:24.340Z,3.37
2022-09-09T13:52:59.944Z,3.34
2022-09-09T14:03:38.544Z,3.32
2022-09-09T14:14:28.227Z,3.32
2022-09-09T14:25:07.379Z,3.33
2022-09-09T14:35:52.534Z,3.34
2022-09-09T14:46:27.779Z,3.32
2022-09-09T14:57:23.863Z,3.33
2022-09-09T15:08:12.478Z,3.33
2022-09-09T15:18:59.328Z,3.36
2022-09-09T15:29:50.814Z,3.34
2022-09-09T15:40:50.720Z,3.34
2022-09-09T15:51:49.350Z,3.34
2022-09-09T16:02:48.247Z,3.34
2022-09-09T16:13:51.098Z,3.33
2022-09-09T16:24:46.348Z,3.37
2022-09-09T16:35:44.983Z,3.34
2022-09-09T16:46:40.051Z,3.32
2022-09-09T16:57:17.247Z,3.29
2022-09-09T17:07:53.323Z,3.27
2022-09-09T17:18:45.744Z,3.26
2022-09-09T17:29:42.798Z,3.25
2022-09-09T17:40:40.949Z,3.25
2022-09-09T17:51:37.912Z,3.24
2022-09-09T18:02:25.523Z,3.23
2022-09-09T18:13:19.898Z,3.22
2022-09-09T18:24:12.169Z,3.21
2022-09-09T18:35:09.713Z,3.20
2022-09-09T18:45:45.999Z,3.18
2022-09-09T18:56:21.260Z,3.17
2022-09-09T19:07:20.842Z,3.17
2022-09-09T19:17:56.923Z,3.15
2022-09-09T19:28:32.959Z,3.14
2022-09-09T19:39:33.078Z,3.15
2022-09-09T19:50:25.617Z,3.14
2022-09-09T20:01:12.578Z,3.13
2022-09-09T20:11:49.008Z,3.11
2022-09-09T20:22:42.096Z,3.11
2022-09-09T20:33:36.836Z,3.11
2022-09-09T20:44:25.517Z,3.10
2022-09-09T20:55:25.899Z,3.10
2022-09-09T21:06:12.258Z,3.09
2022-09-09T21:17:05.718Z,3.09
2022-09-09T21:28:01.657Z,3.09
2022-09-09T21:38:59.454Z,3.08
2022-09-09T21:49:53.650Z,3.07
2022-09-09T22:00:38.236Z,3.07
2022-09-09T22:11:15.065Z,3.06
2022-09-09T22:22:14.313Z,3.06
2022-09-09T22:33:09.768Z,3.05
2022-09-09T22:43:49.950Z,3.04
2022-09-09T22:54:44.855Z,3.05
2022-09-09T23:05:44.226Z,3.04
2022-09-09T23:16:41.936Z,3.04
2022-09-09T23:27:20.737Z,3.03
2022-09-09T23:38:21.920Z,3.03
2022-09-09T23:49:00.728Z,3.02
2022-09-09T23:59:57.572Z,3.02
